createdAt,value
2023-03-24T00:02:37.680Z,14.40
2023-03-24T00:06:39.751Z,14.40
2023-03-24T00:10:42.708Z,14.40
2023-03-24T00:14:46.542Z,14.30
2023-03-24T00:18:53.161Z,14.30
2023-03-24T00:22:59.205Z,14.20
2023-03-24T00:27:03.761Z,14.10
2023-03-24T00:31:08.761Z,14.10
2023-03-24T00:35:12.910Z,14.10
2023-03-24T00:39:17.303Z,14.10
2023-03-24T00:43:19.247Z,14.00
2023-03-24T00:47:26.209Z,14.00
2023-03-24T00:51:37.838Z,14.00
2023-03-24T00:55:39.563Z,14.00
2023-03-24T00:59:48.719Z,13.90
2023-03-24T01:03:53.908Z,13.90
2023-03-24T01:08:03.955Z,13.90
2023-03-24T01:12:07.076Z,13.90
2023-03-24T01:16:09.585Z,13.90
2023-03-24T01:20:12.390Z,13.90
2023-03-24T01:24:14.256Z,13.80
2023-03-24T01:28:19.168Z,13.80
2023-03-24T01:32:21.197Z,13.80
2023-03-24T01:36:23.294Z,13.70
2023-03-24T01:40:31.410Z,13.70
2023-03-24T01:44:38.240Z,13.70
2023-03-24T01:49:09.242Z,13.70
2023-03-24T01:53:11.121Z,13.60
2023-03-24T01:57:25.004Z,13.60
2023-03-24T02:01:30.256Z,13.70
2023-03-24T02:05:34.964Z,13.70
2023-03-24T02:09:37.132Z,13.60
2023-03-24T02:13:39.088Z,13.70
2023-03-24T02:18:19.127Z,13.80
2023-03-24T02:22:55.965Z,13.90
2023-03-24T02:27:30.239Z,14.00
2023-03-24T02:32:10.161Z,14.10
2023-03-24T02:36:30.104Z,14.20
2023-03-24T02:41:06.781Z,14.30
2023-03-24T02:45:24.603Z,14.30
2023-03-24T02:49:54.850Z,14.20
2023-03-24T02:54:28.051Z,14.20
2023-03-24T02:58:48.902Z,14.20
2023-03-24T03:03:09.630Z,14.10
2023-03-24T03:07:19.621Z,14.10
2023-03-24T03:11:27.586Z,14.10
2023-03-24T03:15:49.619Z,14.10
2023-03-24T03:20:02.581Z,14.10
2023-03-24T03:24:15.849Z,14.20
2023-03-24T03:28:23.683Z,14.10
2023-03-24T03:32:32.087Z,14.20
2023-03-24T03:36:39.917Z,14.20
2023-03-24T03:40:51.761Z,14.30
2023-03-24T03:44:53.738Z,14.30
2023-03-24T03:48:55.804Z,14.20
2023-03-24T03:53:29.207Z,14.20
2023-03-24T03:57:57.673Z,14.20
2023-03-24T04:02:14.421Z,14.20
2023-03-24T04:06:28.094Z,14.20
2023-03-24T04:11:06.854Z,14.20
2023-03-24T04:15:29.378Z,14.20
2023-03-24T04:20:14.906Z,14.20
2023-03-24T04:24:40.337Z,14.20
2023-03-24T04:28:53.131Z,14.30
2023-03-24T04:33:03.966Z,14.20
2023-03-24T04:37:12.687Z,14.10
2023-03-24T04:41:17.808Z,14.10
2023-03-24T04:45:19.980Z,14.10
2023-03-24T04:49:25.557Z,13.90
2023-03-24T04:53:27.912Z,13.90
2023-03-24T04:57:29.705Z,13.80
2023-03-24T05:01:31.731Z,13.80
2023-03-24T05:05:33.520Z,13.80
2023-03-24T05:09:35.372Z,13.80
2023-03-24T05:13:37.529Z,13.90
2023-03-24T05:17:39.531Z,13.90
2023-03-24T05:21:41.528Z,13.90
2023-03-24T05:25:43.698Z,13.90
2023-03-24T05:29:46.140Z,13.90
2023-03-24T05:33:48.914Z,13.80
2023-03-24T05:37:53.688Z,13.90
2023-03-24T05:41:55.589Z,13.90
2023-03-24T05:46:03.639Z,13.90
2023-03-24T05:50:08.982Z,13.90
2023-03-24T05:54:14.414Z,13.90
2023-03-24T05:58:16.503Z,14.00
2023-03-24T06:02:21.926Z,14.10
2023-03-24T06:06:23.939Z,14.10
2023-03-24T06:10:29.721Z,14.10
2023-03-24T06:14:31.605Z,14.10
2023-03-24T06:18:33.693Z,14.10
2023-03-24T06:22:36.403Z,14.10
2023-03-24T06:26:38.329Z,14.30
2023-03-24T06:30:43.819Z,14.50
2023-03-24T06:34:45.700Z,14.70
2023-03-24T06:38:47.696Z,14.80
2023-03-24T06:42:49.948Z,15.00
2023-03-24T06:46:51.916Z,15.10
2023-03-24T06:50:54.091Z,15.20
2023-03-24T06:54:56.066Z,15.30
2023-03-24T06:58:57.980Z,15.40
2023-03-24T07:03:02.498Z,15.60
2023-03-24T07:07:22.508Z,15.70
2023-03-24T07:11:27.335Z,15.70
2023-03-24T07:15:32.617Z,15.80
2023-03-24T07:19:34.490Z,15.80
2023-03-24T07:23:39.513Z,15.90
2023-03-24T07:27:42.863Z,16.00
2023-03-24T07:31:51.196Z,16.10
2023-03-24T07:35:59.736Z,16.20
2023-03-24T07:40:07.190Z,16.40
2023-03-24T07:44:09.782Z,16.50
2023-03-24T07:48:25.882Z,16.60
2023-03-24T07:52:30.201Z,16.70
2023-03-24T07:56:39.687Z,16.80
2023-03-24T08:00:43.327Z,16.90
2023-03-24T08:04:45.380Z,17.00
2023-03-24T08:08:51.504Z,17.10
2023-03-24T08:12:54.487Z,17.10
2023-03-24T08:17:13.155Z,17.20
2023-03-24T08:21:15.447Z,17.20
2023-03-24T08:25:26.025Z,17.30
2023-03-24T08:29:30.505Z,17.40
2023-03-24T08:33:52.787Z,17.40
2023-03-24T08:37:54.807Z,17.50
2023-03-24T08:41:56.865Z,17.60
2023-03-24T08:46:06.867Z,17.70
2023-03-24T08:50:14.714Z,17.80
2023-03-24T08:54:16.705Z,17.80
2023-03-24T08:58:23.199Z,17.70
2023-03-24T09:02:30.899Z,17.70
2023-03-24T09:06:39.711Z,17.70
2023-03-24T09:15:14.838Z,17.90
2023-03-24T09:19:29.994Z,18.00
2023-03-24T09:23:47.869Z,18.30
2023-03-24T09:27:50.491Z,18.60
2023-03-24T09:31:55.846Z,18.70
2023-03-24T09:36:04.297Z,18.70
2023-03-24T09:40:26.846Z,18.70
2023-03-24T09:44:44.117Z,18.80
2023-03-24T09:48:52.589Z,18.70
2023-03-24T09:53:00.968Z,18.70
2023-03-24T09:57:08.473Z,18.80
2023-03-24T10:01:19.617Z,19.00
2023-03-24T10:05:43.076Z,19.10
2023-03-24T10:09:57.956Z,19.40
2023-03-24T10:14:20.454Z,19.40
2023-03-24T10:18:49.869Z,19.30
2023-03-24T10:23:25.891Z,19.20
2023-03-24T10:27:39.608Z,19.00
2023-03-24T10:31:41.570Z,19.00
2023-03-24T10:35:55.931Z,19.20
2023-03-24T10:39:57.850Z,19.20
2023-03-24T10:44:02.055Z,19.30
2023-03-24T10:48:04.418Z,19.20
2023-03-24T10:52:09.913Z,19.40
2023-03-24T10:56:20.050Z,19.60
2023-03-24T11:00:29.915Z,20.20
2023-03-24T11:04:32.417Z,20.30
2023-03-24T11:08:39.649Z,20.10
2023-03-24T11:13:05.103Z,20.10
2023-03-24T11:17:17.052Z,19.90
2023-03-24T11:21:19.727Z,19.70
2023-03-24T11:25:24.107Z,19.50
2023-03-24T11:29:28.009Z,19.40
2023-03-24T11:33:36.551Z,19.50
2023-03-24T11:37:38.739Z,19.70
2023-03-24T11:42:19.644Z,19.80
2023-03-24T11:46:23.390Z,20.10
2023-03-24T11:50:33.702Z,20.20
2023-03-24T11:54:36.682Z,20.10
2023-03-24T11:59:33.012Z,19.90
2023-03-24T12:03:56.537Z,19.70
2023-03-24T12:08:14.312Z,19.90
2023-03-24T12:12:58.394Z,20.10
2023-03-24T12:17:23.137Z,20.40
2023-03-24T12:21:57.018Z,20.60
2023-03-24T12:26:17.568Z,20.70
2023-03-24T12:31:03.630Z,20.50
2023-03-24T12:35:29.150Z,20.30
2023-03-24T12:39:50.767Z,20.20
2023-03-24T12:44:06.195Z,19.80
2023-03-24T12:48:40.161Z,19.50
2023-03-24T12:53:12.758Z,19.50
2023-03-24T12:57:19.864Z,19.30
2023-03-24T13:01:37.939Z,19.20
2023-03-24T13:05:47.200Z,19.10
2023-03-24T13:10:02.142Z,19.00
2023-03-24T13:14:05.293Z,18.90
2023-03-24T13:18:10.935Z,18.70
2023-03-24T13:22:16.614Z,18.70
2023-03-24T13:26:40.873Z,18.70
2023-03-24T13:30:42.958Z,18.80
2023-03-24T13:34:56.138Z,18.90
2023-03-24T13:39:01.725Z,19.10
2023-03-24T13:43:17.574Z,19.20
2023-03-24T13:47:20.407Z,19.30
2023-03-24T13:51:30.245Z,19.30
2023-03-24T13:55:35.642Z,19.20
2023-03-24T14:00:08.647Z,19.00
2023-03-24T14:04:19.650Z,18.80
2023-03-24T14:08:34.905Z,16.80
2023-03-24T14:12:37.426Z,15.10
2023-03-24T14:17:14.294Z,14.20
2023-03-24T14:21:16.176Z,13.90
2023-03-24T14:25:22.531Z,13.70
2023-03-24T14:29:38.974Z,13.60
2023-03-24T14:33:53.085Z,13.60
2023-03-24T14:37:58.985Z,13.80
2023-03-24T14:42:03.037Z,14.00
2023-03-24T14:46:51.072Z,14.20
2023-03-24T14:50:53.827Z,14.30
2023-03-24T14:54:58.839Z,14.00
2023-03-24T14:59:04.225Z,14.10
2023-03-24T15:03:31.970Z,14.10
2023-03-24T15:07:35.591Z,14.20
2023-03-24T15:11:39.089Z,14.20
2023-03-24T15:15:47.776Z,14.20
2023-03-24T15:19:52.655Z,14.20
2023-03-24T15:23:56.066Z,14.20
2023-03-24T15:27:58.511Z,14.20
2023-03-24T15:32:01.024Z,14.20
2023-03-24T15:36:08.711Z,14.10
2023-03-24T15:40:44.169Z,14.10
2023-03-24T15:44:46.224Z,14.00
2023-03-24T15:48:48.151Z,14.00
2023-03-24T15:53:13.979Z,14.00
2023-03-24T15:57:23.960Z,14.00
2023-03-24T16:01:27.879Z,14.10
2023-03-24T16:05:33.498Z,14.20
2023-03-24T16:09:38.061Z,14.40
2023-03-24T16:13:42.304Z,14.30
2023-03-24T16:17:48.647Z,14.20
2023-03-24T16:21:54.981Z,14.10
2023-03-24T16:25:57.022Z,14.10
2023-03-24T16:29:58.972Z,14.10
2023-03-24T16:34:01.056Z,14.10
2023-03-24T16:38:03.044Z,14.10
2023-03-24T16:42:05.241Z,14.00
2023-03-24T16:46:22.795Z,14.00
2023-03-24T16:50:36.964Z,14.00
2023-03-24T16:54:39.401Z,13.90
2023-03-24T16:58:41.489Z,13.90
2023-03-24T17:02:48.418Z,13.90
2023-03-24T17:06:54.944Z,13.90
2023-03-24T17:11:00.196Z,13.80
2023-03-24T17:15:02.363Z,13.60
2023-03-24T17:19:05.507Z,13.50
2023-03-24T17:23:09.806Z,13.30
2023-03-24T17:27:21.489Z,13.30
2023-03-24T17:31:24.704Z,13.10
2023-03-24T17:35:26.753Z,13.00
2023-03-24T17:39:29.268Z,12.90
2023-03-24T17:43:31.615Z,12.80
2023-03-24T17:47:40.298Z,12.80
2023-03-24T17:51:48.546Z,12.80
2023-03-24T17:55:56.181Z,12.70
2023-03-24T17:59:58.043Z,12.70
2023-03-24T18:04:00.207Z,12.70
2023-03-24T18:08:08.348Z,12.70
2023-03-24T18:12:10.645Z,12.60
2023-03-24T18:16:21.180Z,12.60
2023-03-24T18:20:24.713Z,12.60
2023-03-24T18:24:27.809Z,12.60
2023-03-24T18:28:29.840Z,12.60
2023-03-24T18:32:37.965Z,12.60
2023-03-24T18:36:40.459Z,12.60
2023-03-24T18:40:42.373Z,12.60
2023-03-24T18:44:45.234Z,12.60
2023-03-24T18:48:48.118Z,12.50
2023-03-24T18:52:50.693Z,12.60
2023-03-24T18:56:52.844Z,12.50
2023-03-24T19:00:56.486Z,12.50
2023-03-24T19:04:58.459Z,12.50
2023-03-24T19:09:00.674Z,12.50
2023-03-24T19:13:05.662Z,12.40
2023-03-24T19:17:07.614Z,12.40
2023-03-24T19:21:10.374Z,12.30
2023-03-24T19:25:12.199Z,12.30
2023-03-24T19:29:14.228Z,12.20
2023-03-24T19:33:16.203Z,12.10
2023-03-24T19:37:18.357Z,12.10
2023-03-24T19:41:21.077Z,12.10
2023-03-24T19:45:23.003Z,12.00
2023-03-24T19:49:26.899Z,12.00
2023-03-24T19:53:29.175Z,11.90
2023-03-24T19:57:31.899Z,11.90
2023-03-24T20:01:35.848Z,11.90
2023-03-24T20:05:39.140Z,11.90
2023-03-24T20:09:41.179Z,11.90
2023-03-24T20:13:44.015Z,11.80
2023-03-24T20:17:51.283Z,11.70
2023-03-24T20:21:54.096Z,11.60
2023-03-24T20:26:08.315Z,11.50
2023-03-24T20:30:16.780Z,11.50
2023-03-24T20:34:29.905Z,11.40
2023-03-24T20:39:05.177Z,11.40
2023-03-24T20:43:08.257Z,11.40
2023-03-24T20:47:10.351Z,11.40
2023-03-24T20:51:13.571Z,11.40
2023-03-24T20:55:16.174Z,11.40
2023-03-24T20:59:19.073Z,11.40
2023-03-24T21:03:21.514Z,11.40
2023-03-24T21:07:25.993Z,11.40
2023-03-24T21:11:30.904Z,11.40
2023-03-24T21:15:33.149Z,11.40
2023-03-24T21:19:37.211Z,11.40
2023-03-24T21:23:39.439Z,11.40
2023-03-24T21:27:41.291Z,11.40
2023-03-24T21:31:43.622Z,11.40
2023-03-24T21:35:45.725Z,11.30
2023-03-24T21:39:47.565Z,11.30
2023-03-24T21:44:10.132Z,11.20
2023-03-24T21:48:14.198Z,11.30
2023-03-24T21:52:20.733Z,11.20
2023-03-24T21:56:23.182Z,11.20
2023-03-24T22:00:26.333Z,11.20
2023-03-24T22:04:30.884Z,11.20
2023-03-24T22:08:32.832Z,11.20
2023-03-24T22:12:34.721Z,11.20
2023-03-24T22:16:36.795Z,11.40
2023-03-24T22:20:38.604Z,11.50
2023-03-24T22:24:41.281Z,11.70
2023-03-24T22:28:43.346Z,11.80
2023-03-24T22:32:45.398Z,11.90
2023-03-24T22:36:47.455Z,12.00
2023-03-24T22:40:49.336Z,12.10
2023-03-24T22:44:51.199Z,12.10
2023-03-24T22:48:53.209Z,12.20
2023-03-24T22:52:55.013Z,12.40
2023-03-24T22:56:57.420Z,12.40
2023-03-24T23:00:59.242Z,12.40
2023-03-24T23:05:01.329Z,12.50
2023-03-24T23:09:04.855Z,12.50
2023-03-24T23:13:06.937Z,12.40
2023-03-24T23:17:09.530Z,12.50
2023-03-24T23:21:16.216Z,12.50
2023-03-24T23:25:22.516Z,12.50
2023-03-24T23:29:24.361Z,12.50
2023-03-24T23:33:27.517Z,12.50
2023-03-24T23:37:32.201Z,12.50
2023-03-24T23:41:34.083Z,12.40
2023-03-24T23:45:36.485Z,12.40
2023-03-24T23:49:38.613Z,12.30
2023-03-24T23:53:40.589Z,12.20
2023-03-24T23:57:42.610Z,12.20
